sensor_id;sensor_type;location;lat;lon;timestamp;temperature;humidity
16066;DHT22;8137;48.952;8.970;2022-07-22T00:00:31;18.80;99.90
16066;DHT22;8137;48.952;8.970;2022-07-22T00:02:57;18.80;99.90
16066;DHT22;8137;48.952;8.970;2022-07-22T00:05:22;18.80;99.90
16066;DHT22;8137;48.952;8.970;2022-07-22T00:07:48;18.80;99.90
16066;DHT22;8137;48.952;8.970;2022-07-22T00:10:13;18.80;99.90
16066;DHT22;8137;48.952;8.970;2022-07-22T00:12:39;18.80;99.90
16066;DHT22;8137;48.952;8.970;2022-07-22T00:15:06;18.70;99.90
16066;DHT22;8137;48.952;8.970;2022-07-22T00:17:32;18.70;99.90
16066;DHT22;8137;48.952;8.970;2022-07-22T00:19:58;18.70;99.90
16066;DHT22;8137;48.952;8.970;2022-07-22T00:22:23;18.60;99.90
16066;DHT22;8137;48.952;8.970;2022-07-22T00:24:49;18.60;99.90
16066;DHT22;8137;48.952;8.970;2022-07-22T00:27:14;18.50;99.90
16066;DHT22;8137;48.952;8.970;2022-07-22T00:29:40;18.60;99.90
16066;DHT22;8137;48.952;8.970;2022-07-22T00:32:06;18.50;99.90
16066;DHT22;8137;48.952;8.970;2022-07-22T00:34:32;18.50;99.90
16066;DHT22;8137;48.952;8.970;2022-07-22T00:36:57;18.50;99.90
16066;DHT22;8137;48.952;8.970;2022-07-22T00:39:23;18.50;99.90
16066;DHT22;8137;48.952;8.970;2022-07-22T00:41:49;18.40;99.90
16066;DHT22;8137;48.952;8.970;2022-07-22T00:44:15;18.40;99.90
16066;DHT22;8137;48.952;8.970;2022-07-22T00:46:40;18.50;99.90
16066;DHT22;8137;48.952;8.970;2022-07-22T00:49:07;18.50;99.90
16066;DHT22;8137;48.952;8.970;2022-07-22T00:51:34;18.60;99.90
16066;DHT22;8137;48.952;8.970;2022-07-22T00:54:02;18.60;99.90
16066;DHT22;8137;48.952;8.970;2022-07-22T00:56:29;18.60;99.90
16066;DHT22;8137;48.952;8.970;2022-07-22T00:58:57;18.50;99.90
16066;DHT22;8137;48.952;8.970;2022-07-22T01:01:23;18.50;99.90
16066;DHT22;8137;48.952;8.970;2022-07-22T01:03:48;18.40;99.90
16066;DHT22;8137;48.952;8.970;2022-07-22T01:06:14;18.50;99.90
16066;DHT22;8137;48.952;8.970;2022-07-22T01:08:41;18.50;99.90
16066;DHT22;8137;48.952;8.970;2022-07-22T01:11:17;18.40;99.90
16066;DHT22;8137;48.952;8.970;2022-07-22T01:13:44;18.40;99.90
16066;DHT22;8137;48.952;8.970;2022-07-22T01:16:12;18.30;99.90
16066;DHT22;8137;48.952;8.970;2022-07-22T01:18:38;18.30;99.90
16066;DHT22;8137;48.952;8.970;2022-07-22T01:21:05;18.30;99.90
16066;DHT22;8137;48.952;8.970;2022-07-22T01:23:31;18.30;99.90
16066;DHT22;8137;48.952;8.970;2022-07-22T01:25:57;18.30;99.90
16066;DHT22;8137;48.952;8.970;2022-07-22T01:28:23;18.20;99.90
16066;DHT22;8137;48.952;8.970;2022-07-22T01:30:49;18.20;99.90
16066;DHT22;8137;48.952;8.970;2022-07-22T01:33:22;18.20;99.90
16066;DHT22;8137;48.952;8.970;2022-07-22T01:35:49;18.30;99.90
16066;DHT22;8137;48.952;8.970;2022-07-22T01:38:15;18.20;99.90
16066;DHT22;8137;48.952;8.970;2022-07-22T01:40:41;18.10;99.90
16066;DHT22;8137;48.952;8.970;2022-07-22T01:43:07;18.00;99.90
16066;DHT22;8137;48.952;8.970;2022-07-22T01:45:33;18.10;99.90
16066;DHT22;8137;48.952;8.970;2022-07-22T01:47:58;18.00;99.90
16066;DHT22;8137;48.952;8.970;2022-07-22T01:50:24;18.10;99.90
16066;DHT22;8137;48.952;8.970;2022-07-22T01:52:50;18.10;99.90
16066;DHT22;8137;48.952;8.970;2022-07-22T01:55:16;18.10;99.90
16066;DHT22;8137;48.952;8.970;2022-07-22T01:57:42;18.10;99.90
16066;DHT22;8137;48.952;8.970;2022-07-22T02:00:08;18.10;99.90
16066;DHT22;8137;48.952;8.970;2022-07-22T02:02:35;18.00;99.90
16066;DHT22;8137;48.952;8.970;2022-07-22T02:05:02;18.00;99.90
16066;DHT22;8137;48.952;8.970;2022-07-22T02:07:28;17.90;99.90
16066;DHT22;8137;48.952;8.970;2022-07-22T02:09:53;17.90;99.90
16066;DHT22;8137;48.952;8.970;2022-07-22T02:12:19;17.80;99.90
16066;DHT22;8137;48.952;8.970;2022-07-22T02:14:45;17.80;99.90
16066;DHT22;8137;48.952;8.970;2022-07-22T02:17:12;17.80;99.90
16066;DHT22;8137;48.952;8.970;2022-07-22T02:19:37;17.70;99.90
16066;DHT22;8137;48.952;8.970;2022-07-22T02:22:03;17.80;99.90
16066;DHT22;8137;48.952;8.970;2022-07-22T02:24:29;17.90;99.90
16066;DHT22;8137;48.952;8.970;2022-07-22T02:26:55;17.90;99.90
16066;DHT22;8137;48.952;8.970;2022-07-22T02:29:20;17.80;99.90
16066;DHT22;8137;48.952;8.970;2022-07-22T02:31:46;17.80;99.90
16066;DHT22;8137;48.952;8.970;2022-07-22T02:34:12;17.70;99.90
16066;DHT22;8137;48.952;8.970;2022-07-22T02:36:37;17.80;99.90
16066;DHT22;8137;48.952;8.970;2022-07-22T02:39:03;17.70;99.90
16066;DHT22;8137;48.952;8.970;2022-07-22T02:41:29;17.70;99.90
16066;DHT22;8137;48.952;8.970;2022-07-22T02:43:55;17.60;99.90
16066;DHT22;8137;48.952;8.970;2022-07-22T02:46:21;17.70;99.90
16066;DHT22;8137;48.952;8.970;2022-07-22T02:48:47;17.60;99.90
16066;DHT22;8137;48.952;8.970;2022-07-22T02:51:13;17.70;99.90
16066;DHT22;8137;48.952;8.970;2022-07-22T02:53:38;17.60;99.90
16066;DHT22;8137;48.952;8.970;2022-07-22T02:56:04;17.50;99.90
16066;DHT22;8137;48.952;8.970;2022-07-22T02:58:30;17.50;99.90
16066;DHT22;8137;48.952;8.970;2022-07-22T03:00:56;17.40;99.90
16066;DHT22;8137;48.952;8.970;2022-07-22T03:03:21;17.40;99.90
16066;DHT22;8137;48.952;8.970;2022-07-22T03:05:47;17.60;99.90
16066;DHT22;8137;48.952;8.970;2022-07-22T03:08:13;17.50;99.90
16066;DHT22;8137;48.952;8.970;2022-07-22T03:10:38;17.40;99.90
16066;DHT22;8137;48.952;8.970;2022-07-22T03:13:04;17.40;99.90
16066;DHT22;8137;48.952;8.970;2022-07-22T03:15:29;17.30;99.90
16066;DHT22;8137;48.952;8.970;2022-07-22T03:17:55;17.40;99.90
16066;DHT22;8137;48.952;8.970;2022-07-22T03:20:21;17.30;99.90
16066;DHT22;8137;48.952;8.970;2022-07-22T03:22:46;17.40;99.90
16066;DHT22;8137;48.952;8.970;2022-07-22T03:25:12;17.40;99.90
16066;DHT22;8137;48.952;8.970;2022-07-22T03:27:38;17.30;99.90
16066;DHT22;8137;48.952;8.970;2022-07-22T03:30:05;17.40;99.90
16066;DHT22;8137;48.952;8.970;2022-07-22T03:32:31;17.40;99.90
16066;DHT22;8137;48.952;8.970;2022-07-22T03:34:57;17.40;99.90
16066;DHT22;8137;48.952;8.970;2022-07-22T03:37:22;17.30;99.90
16066;DHT22;8137;48.952;8.970;2022-07-22T03:39:48;17.20;99.90
16066;DHT22;8137;48.952;8.970;2022-07-22T03:42:13;17.10;99.90
16066;DHT22;8137;48.952;8.970;2022-07-22T03:44:39;17.10;99.90
16066;DHT22;8137;48.952;8.970;2022-07-22T03:47:05;17.10;99.90
16066;DHT22;8137;48.952;8.970;2022-07-22T03:49:31;17.20;99.90
16066;DHT22;8137;48.952;8.970;2022-07-22T03:51:57;17.10;99.90
16066;DHT22;8137;48.952;8.970;2022-07-22T03:54:23;17.30;99.90
16066;DHT22;8137;48.952;8.970;2022-07-22T03:56:48;17.40;99.90
16066;DHT22;8137;48.952;8.970;2022-07-22T03:59:15;17.40;99.90
16066;DHT22;8137;48.952;8.970;2022-07-22T04:01:41;17.50;99.90
16066;DHT22;8137;48.952;8.970;2022-07-22T04:04:06;17.40;99.90
16066;DHT22;8137;48.952;8.970;2022-07-22T04:06:32;17.40;99.90
16066;DHT22;8137;48.952;8.970;2022-07-22T04:08:58;17.30;99.90
16066;DHT22;8137;48.952;8.970;2022-07-22T04:11:23;17.20;99.90
16066;DHT22;8137;48.952;8.970;2022-07-22T04:13:49;17.20;99.90
16066;DHT22;8137;48.952;8.970;2022-07-22T04:16:15;17.20;99.90
16066;DHT22;8137;48.952;8.970;2022-07-22T04:18:41;17.20;99.90
16066;DHT22;8137;48.952;8.970;2022-07-22T04:21:06;17.30;99.90
16066;DHT22;8137;48.952;8.970;2022-07-22T04:23:32;17.30;99.90
16066;DHT22;8137;48.952;8.970;2022-07-22T04:25:57;17.40;99.90
16066;DHT22;8137;48.952;8.970;2022-07-22T04:28:23;17.50;99.90
16066;DHT22;8137;48.952;8.970;2022-07-22T04:30:49;17.60;99.90
16066;DHT22;8137;48.952;8.970;2022-07-22T04:33:14;17.70;99.90
16066;DHT22;8137;48.952;8.970;2022-07-22T04:35:40;17.80;99.90
16066;DHT22;8137;48.952;8.970;2022-07-22T04:38:06;17.80;99.90
16066;DHT22;8137;48.952;8.970;2022-07-22T04:40:31;17.90;99.90
16066;DHT22;8137;48.952;8.970;2022-07-22T04:42:57;17.90;99.90
16066;DHT22;8137;48.952;8.970;2022-07-22T04:45:22;18.00;99.90
16066;DHT22;8137;48.952;8.970;2022-07-22T04:47:48;18.10;99.90
16066;DHT22;8137;48.952;8.970;2022-07-22T04:50:15;18.10;99.90
16066;DHT22;8137;48.952;8.970;2022-07-22T04:52:40;18.20;99.90
16066;DHT22;8137;48.952;8.970;2022-07-22T04:55:06;18.20;99.90
16066;DHT22;8137;48.952;8.970;2022-07-22T04:57:32;18.30;99.90
16066;DHT22;8137;48.952;8.970;2022-07-22T04:59:57;18.40;99.90
16066;DHT22;8137;48.952;8.970;2022-07-22T05:02:23;18.50;99.90
16066;DHT22;8137;48.952;8.970;2022-07-22T05:04:49;18.60;99.90
16066;DHT22;8137;48.952;8.970;2022-07-22T05:07:14;18.60;99.90
16066;DHT22;8137;48.952;8.970;2022-07-22T05:09:40;18.70;99.90
16066;DHT22;8137;48.952;8.970;2022-07-22T05:12:06;18.80;99.90
16066;DHT22;8137;48.952;8.970;2022-07-22T05:14:32;19.00;99.90
16066;DHT22;8137;48.952;8.970;2022-07-22T05:16:57;19.10;99.90
16066;DHT22;8137;48.952;8.970;2022-07-22T05:19:23;19.20;99.90
16066;DHT22;8137;48.952;8.970;2022-07-22T05:21:49;19.30;99.90
16066;DHT22;8137;48.952;8.970;2022-07-22T05:24:14;19.40;99.90
16066;DHT22;8137;48.952;8.970;2022-07-22T05:26:40;19.50;99.90
16066;DHT22;8137;48.952;8.970;2022-07-22T05:29:05;19.50;99.90
16066;DHT22;8137;48.952;8.970;2022-07-22T05:31:31;19.60;99.90
16066;DHT22;8137;48.952;8.970;2022-07-22T05:33:57;19.60;99.90
16066;DHT22;8137;48.952;8.970;2022-07-22T05:36:22;19.70;99.90
16066;DHT22;8137;48.952;8.970;2022-07-22T05:38:48;20.00;99.90
16066;DHT22;8137;48.952;8.970;2022-07-22T05:41:14;20.10;99.90
16066;DHT22;8137;48.952;8.970;2022-07-22T05:43:40;20.20;99.90
16066;DHT22;8137;48.952;8.970;2022-07-22T05:46:05;20.40;99.90
16066;DHT22;8137;48.952;8.970;2022-07-22T05:48:33;20.30;99.90
16066;DHT22;8137;48.952;8.970;2022-07-22T05:50:59;20.50;99.90
16066;DHT22;8137;48.952;8.970;2022-07-22T05:53:25;20.60;99.90
16066;DHT22;8137;48.952;8.970;2022-07-22T05:55:51;20.70;99.90
16066;DHT22;8137;48.952;8.970;2022-07-22T05:58:16;20.80;99.90
16066;DHT22;8137;48.952;8.970;2022-07-22T06:00:42;20.80;99.90
16066;DHT22;8137;48.952;8.970;2022-07-22T06:03:08;20.90;99.90
16066;DHT22;8137;48.952;8.970;2022-07-22T06:05:33;21.00;99.90
16066;DHT22;8137;48.952;8.970;2022-07-22T06:08:01;21.00;99.90
16066;DHT22;8137;48.952;8.970;2022-07-22T06:10:27;21.10;99.90
16066;DHT22;8137;48.952;8.970;2022-07-22T06:12:52;21.20;99.90
16066;DHT22;8137;48.952;8.970;2022-07-22T06:15:18;21.20;99.90
16066;DHT22;8137;48.952;8.970;2022-07-22T06:17:43;21.20;99.90
16066;DHT22;8137;48.952;8.970;2022-07-22T06:20:09;21.20;99.90
16066;DHT22;8137;48.952;8.970;2022-07-22T06:22:35;21.10;99.90
16066;DHT22;8137;48.952;8.970;2022-07-22T06:25:00;20.90;99.90
16066;DHT22;8137;48.952;8.970;2022-07-22T06:27:26;20.90;99.90
16066;DHT22;8137;48.952;8.970;2022-07-22T06:29:52;20.90;99.90
16066;DHT22;8137;48.952;8.970;2022-07-22T06:32:17;20.90;99.90
16066;DHT22;8137;48.952;8.970;2022-07-22T06:34:43;21.00;99.90
16066;DHT22;8137;48.952;8.970;2022-07-22T06:37:08;21.10;99.90
16066;DHT22;8137;48.952;8.970;2022-07-22T06:39:34;21.40;99.90
16066;DHT22;8137;48.952;8.970;2022-07-22T06:42:00;21.40;99.90
16066;DHT22;8137;48.952;8.970;2022-07-22T06:44:26;21.50;99.90
16066;DHT22;8137;48.952;8.970;2022-07-22T06:46:51;21.30;99.90
16066;DHT22;8137;48.952;8.970;2022-07-22T06:49:17;21.40;99.90
16066;DHT22;8137;48.952;8.970;2022-07-22T06:51:43;21.40;99.90
16066;DHT22;8137;48.952;8.970;2022-07-22T06:54:08;21.50;99.90
16066;DHT22;8137;48.952;8.970;2022-07-22T06:56:34;21.60;99.90
16066;DHT22;8137;48.952;8.970;2022-07-22T06:58:59;21.70;99.90
16066;DHT22;8137;48.952;8.970;2022-07-22T07:01:25;21.90;99.90
16066;DHT22;8137;48.952;8.970;2022-07-22T07:03:50;22.00;99.90
16066;DHT22;8137;48.952;8.970;2022-07-22T07:06:16;22.00;99.90
16066;DHT22;8137;48.952;8.970;2022-07-22T07:08:42;22.10;99.90
16066;DHT22;8137;48.952;8.970;2022-07-22T07:11:08;22.30;99.90
16066;DHT22;8137;48.952;8.970;2022-07-22T07:13:33;22.40;99.90
16066;DHT22;8137;48.952;8.970;2022-07-22T07:15:59;22.40;99.90
16066;DHT22;8137;48.952;8.970;2022-07-22T07:18:25;22.30;99.90
16066;DHT22;8137;48.952;8.970;2022-07-22T07:20:50;22.40;99.90
16066;DHT22;8137;48.952;8.970;2022-07-22T07:23:16;22.30;99.90
16066;DHT22;8137;48.952;8.970;2022-07-22T07:25:42;22.30;99.90
16066;DHT22;8137;48.952;8.970;2022-07-22T07:28:07;22.20;99.90
16066;DHT22;8137;48.952;8.970;2022-07-22T07:30:33;22.40;99.90
16066;DHT22;8137;48.952;8.970;2022-07-22T07:32:59;22.40;99.90
16066;DHT22;8137;48.952;8.970;2022-07-22T07:35:28;22.70;99.90
16066;DHT22;8137;48.952;8.970;2022-07-22T07:37:53;23.00;99.90
16066;DHT22;8137;48.952;8.970;2022-07-22T07:40:19;23.20;99.90
16066;DHT22;8137;48.952;8.970;2022-07-22T07:42:45;23.30;99.90
16066;DHT22;8137;48.952;8.970;2022-07-22T07:45:12;23.40;99.90
16066;DHT22;8137;48.952;8.970;2022-07-22T07:47:38;23.60;99.90
16066;DHT22;8137;48.952;8.970;2022-07-22T07:50:05;23.60;99.90
16066;DHT22;8137;48.952;8.970;2022-07-22T07:52:37;23.80;99.90
16066;DHT22;8137;48.952;8.970;2022-07-22T07:55:04;23.80;99.90
16066;DHT22;8137;48.952;8.970;2022-07-22T07:57:30;23.40;99.90
16066;DHT22;8137;48.952;8.970;2022-07-22T07:59:56;23.40;99.90
16066;DHT22;8137;48.952;8.970;2022-07-22T08:02:21;23.50;99.90
16066;DHT22;8137;48.952;8.970;2022-07-22T08:04:47;23.80;99.90
16066;DHT22;8137;48.952;8.970;2022-07-22T08:07:12;24.00;99.90
16066;DHT22;8137;48.952;8.970;2022-07-22T08:09:38;24.30;99.90
16066;DHT22;8137;48.952;8.970;2022-07-22T08:12:05;24.40;99.90
16066;DHT22;8137;48.952;8.970;2022-07-22T08:14:31;24.60;99.90
16066;DHT22;8137;48.952;8.970;2022-07-22T08:16:56;24.60;99.90
16066;DHT22;8137;48.952;8.970;2022-07-22T08:19:22;24.80;99.90
16066;DHT22;8137;48.952;8.970;2022-07-22T08:21:47;24.90;99.90
16066;DHT22;8137;48.952;8.970;2022-07-22T08:24:13;25.00;99.90
16066;DHT22;8137;48.952;8.970;2022-07-22T08:26:39;25.20;99.90
16066;DHT22;8137;48.952;8.970;2022-07-22T08:29:04;25.40;99.90
16066;DHT22;8137;48.952;8.970;2022-07-22T08:31:31;25.50;99.90
16066;DHT22;8137;48.952;8.970;2022-07-22T08:34:01;25.60;99.90
16066;DHT22;8137;48.952;8.970;2022-07-22T08:36:27;25.90;99.90
16066;DHT22;8137;48.952;8.970;2022-07-22T08:38:53;25.80;99.90
16066;DHT22;8137;48.952;8.970;2022-07-22T08:41:21;25.40;99.90
16066;DHT22;8137;48.952;8.970;2022-07-22T08:43:48;25.50;99.90
16066;DHT22;8137;48.952;8.970;2022-07-22T08:46:14;25.60;99.90
16066;DHT22;8137;48.952;8.970;2022-07-22T08:48:40;25.70;99.90
16066;DHT22;8137;48.952;8.970;2022-07-22T08:51:06;25.60;99.90
16066;DHT22;8137;48.952;8.970;2022-07-22T08:53:32;25.80;99.90
16066;DHT22;8137;48.952;8.970;2022-07-22T08:55:58;26.10;99.90
16066;DHT22;8137;48.952;8.970;2022-07-22T08:58:27;26.10;99.90
16066;DHT22;8137;48.952;8.970;2022-07-22T09:01:11;26.20;99.90
16066;DHT22;8137;48.952;8.970;2022-07-22T09:03:54;26.20;99.90
16066;DHT22;8137;48.952;8.970;2022-07-22T09:06:23;26.40;99.90
16066;DHT22;8137;48.952;8.970;2022-07-22T09:08:57;26.30;99.90
16066;DHT22;8137;48.952;8.970;2022-07-22T09:11:27;26.40;99.90
16066;DHT22;8137;48.952;8.970;2022-07-22T09:13:55;26.40;99.90
16066;DHT22;8137;48.952;8.970;2022-07-22T09:16:43;26.60;99.90
16066;DHT22;8137;48.952;8.970;2022-07-22T09:19:09;26.90;99.90
16066;DHT22;8137;48.952;8.970;2022-07-22T09:21:36;26.80;99.90
16066;DHT22;8137;48.952;8.970;2022-07-22T09:24:04;26.80;99.90
16066;DHT22;8137;48.952;8.970;2022-07-22T09:29:00;27.00;99.90
16066;DHT22;8137;48.952;8.970;2022-07-22T09:31:34;27.30;99.90
16066;DHT22;8137;48.952;8.970;2022-07-22T09:34:00;27.60;99.90
16066;DHT22;8137;48.952;8.970;2022-07-22T09:36:27;27.40;99.60
16066;DHT22;8137;48.952;8.970;2022-07-22T09:38:53;27.10;99.80
16066;DHT22;8137;48.952;8.970;2022-07-22T09:41:18;27.30;98.30
16066;DHT22;8137;48.952;8.970;2022-07-22T09:43:45;27.40;96.10
16066;DHT22;8137;48.952;8.970;2022-07-22T09:46:10;27.50;97.40
16066;DHT22;8137;48.952;8.970;2022-07-22T09:48:37;27.70;97.50
16066;DHT22;8137;48.952;8.970;2022-07-22T09:51:04;27.40;95.30
16066;DHT22;8137;48.952;8.970;2022-07-22T09:53:30;27.10;94.90
16066;DHT22;8137;48.952;8.970;2022-07-22T09:55:58;27.20;96.00
16066;DHT22;8137;48.952;8.970;2022-07-22T09:58:25;27.30;95.00
16066;DHT22;8137;48.952;8.970;2022-07-22T10:00:52;27.50;95.10
16066;DHT22;8137;48.952;8.970;2022-07-22T10:03:26;27.90;94.80
16066;DHT22;8137;48.952;8.970;2022-07-22T10:05:52;28.20;93.90
16066;DHT22;8137;48.952;8.970;2022-07-22T10:08:19;28.20;92.80
16066;DHT22;8137;48.952;8.970;2022-07-22T10:10:45;28.50;92.40
16066;DHT22;8137;48.952;8.970;2022-07-22T10:13:11;28.50;92.70
16066;DHT22;8137;48.952;8.970;2022-07-22T10:15:37;28.60;91.50
16066;DHT22;8137;48.952;8.970;2022-07-22T10:18:24;28.50;90.20
16066;DHT22;8137;48.952;8.970;2022-07-22T10:21:07;28.30;89.40
16066;DHT22;8137;48.952;8.970;2022-07-22T10:23:33;28.20;90.10
16066;DHT22;8137;48.952;8.970;2022-07-22T10:26:00;28.30;91.10
16066;DHT22;8137;48.952;8.970;2022-07-22T10:28:36;28.40;88.10
16066;DHT22;8137;48.952;8.970;2022-07-22T10:31:23;28.50;86.90
16066;DHT22;8137;48.952;8.970;2022-07-22T10:33:56;28.60;85.10
16066;DHT22;8137;48.952;8.970;2022-07-22T10:36:38;28.50;82.40
16066;DHT22;8137;48.952;8.970;2022-07-22T10:39:13;29.00;86.00
16066;DHT22;8137;48.952;8.970;2022-07-22T10:41:41;29.30;84.30
16066;DHT22;8137;48.952;8.970;2022-07-22T10:44:07;29.40;81.60
16066;DHT22;8137;48.952;8.970;2022-07-22T10:46:54;29.20;81.90
16066;DHT22;8137;48.952;8.970;2022-07-22T10:49:22;29.20;79.50
16066;DHT22;8137;48.952;8.970;2022-07-22T10:55:16;29.60;81.10
16066;DHT22;8137;48.952;8.970;2022-07-22T10:57:42;29.60;78.50
16066;DHT22;8137;48.952;8.970;2022-07-22T11:00:08;29.80;80.30
16066;DHT22;8137;48.952;8.970;2022-07-22T11:02:35;30.00;78.80
16066;DHT22;8137;48.952;8.970;2022-07-22T11:05:02;30.20;76.20
16066;DHT22;8137;48.952;8.970;2022-07-22T11:07:28;30.10;72.80
16066;DHT22;8137;48.952;8.970;2022-07-22T11:10:15;30.00;75.30
16066;DHT22;8137;48.952;8.970;2022-07-22T11:12:42;29.70;78.90
16066;DHT22;8137;48.952;8.970;2022-07-22T11:15:09;29.70;74.80
16066;DHT22;8137;48.952;8.970;2022-07-22T11:17:36;29.80;76.40
16066;DHT22;8137;48.952;8.970;2022-07-22T11:20:07;30.00;76.80
16066;DHT22;8137;48.952;8.970;2022-07-22T11:22:34;30.00;74.00
16066;DHT22;8137;48.952;8.970;2022-07-22T11:25:02;30.00;72.50
16066;DHT22;8137;48.952;8.970;2022-07-22T11:27:28;30.00;71.80
16066;DHT22;8137;48.952;8.970;2022-07-22T11:29:54;30.00;72.70
16066;DHT22;8137;48.952;8.970;2022-07-22T11:32:23;30.00;70.90
16066;DHT22;8137;48.952;8.970;2022-07-22T11:34:49;30.20;75.00
16066;DHT22;8137;48.952;8.970;2022-07-22T11:37:25;30.40;73.10
16066;DHT22;8137;48.952;8.970;2022-07-22T11:39:58;30.70;70.40
16066;DHT22;8137;48.952;8.970;2022-07-22T11:42:27;30.90;70.60
16066;DHT22;8137;48.952;8.970;2022-07-22T11:44:53;30.70;68.20
16066;DHT22;8137;48.952;8.970;2022-07-22T11:47:19;30.40;72.00
16066;DHT22;8137;48.952;8.970;2022-07-22T11:49:46;30.30;70.40
16066;DHT22;8137;48.952;8.970;2022-07-22T11:52:12;30.50;68.50
16066;DHT22;8137;48.952;8.970;2022-07-22T11:54:42;30.70;68.90
16066;DHT22;8137;48.952;8.970;2022-07-22T11:57:08;31.00;70.10
16066;DHT22;8137;48.952;8.970;2022-07-22T11:59:35;30.90;70.40
16066;DHT22;8137;48.952;8.970;2022-07-22T12:02:02;31.00;69.10
16066;DHT22;8137;48.952;8.970;2022-07-22T12:04:29;31.10;71.20
16066;DHT22;8137;48.952;8.970;2022-07-22T12:06:58;31.10;68.90
16066;DHT22;8137;48.952;8.970;2022-07-22T12:09:26;31.20;69.70
16066;DHT22;8137;48.952;8.970;2022-07-22T12:11:55;31.20;67.40
16066;DHT22;8137;48.952;8.970;2022-07-22T12:14:28;30.90;70.10
16066;DHT22;8137;48.952;8.970;2022-07-22T12:17:00;31.10;69.20
16066;DHT22;8137;48.952;8.970;2022-07-22T12:19:28;31.10;68.50
16066;DHT22;8137;48.952;8.970;2022-07-22T12:26:55;31.40;67.20
16066;DHT22;8137;48.952;8.970;2022-07-22T12:29:30;31.80;66.80
16066;DHT22;8137;48.952;8.970;2022-07-22T12:34:42;31.90;64.90
16066;DHT22;8137;48.952;8.970;2022-07-22T12:39:54;31.50;67.60
16066;DHT22;8137;48.952;8.970;2022-07-22T12:42:21;31.40;68.40
16066;DHT22;8137;48.952;8.970;2022-07-22T12:44:52;31.60;66.90
16066;DHT22;8137;48.952;8.970;2022-07-22T12:48:27;31.40;64.30
16066;DHT22;8137;48.952;8.970;2022-07-22T12:50:39;31.60;63.80
16066;DHT22;8137;48.952;8.970;2022-07-22T12:53:11;31.80;64.20
16066;DHT22;8137;48.952;8.970;2022-07-22T12:55:40;32.00;65.20
16066;DHT22;8137;48.952;8.970;2022-07-22T12:58:06;31.70;65.40
16066;DHT22;8137;48.952;8.970;2022-07-22T13:00:35;31.60;68.60
16066;DHT22;8137;48.952;8.970;2022-07-22T13:03:02;31.90;63.70
16066;DHT22;8137;48.952;8.970;2022-07-22T13:05:28;32.30;64.30
16066;DHT22;8137;48.952;8.970;2022-07-22T13:07:54;32.60;64.20
16066;DHT22;8137;48.952;8.970;2022-07-22T13:10:24;32.70;62.50
16066;DHT22;8137;48.952;8.970;2022-07-22T13:12:50;32.80;60.90
16066;DHT22;8137;48.952;8.970;2022-07-22T13:15:17;32.70;61.00
16066;DHT22;8137;48.952;8.970;2022-07-22T13:17:42;32.50;62.40
16066;DHT22;8137;48.952;8.970;2022-07-22T13:20:10;32.20;60.70
16066;DHT22;8137;48.952;8.970;2022-07-22T13:22:36;32.20;60.80
16066;DHT22;8137;48.952;8.970;2022-07-22T13:25:02;32.00;61.30
16066;DHT22;8137;48.952;8.970;2022-07-22T13:27:27;32.20;61.00
16066;DHT22;8137;48.952;8.970;2022-07-22T13:29:53;32.20;63.10
16066;DHT22;8137;48.952;8.970;2022-07-22T13:32:18;32.60;64.30
16066;DHT22;8137;48.952;8.970;2022-07-22T13:34:44;32.90;62.70
16066;DHT22;8137;48.952;8.970;2022-07-22T13:37:10;33.10;61.70
16066;DHT22;8137;48.952;8.970;2022-07-22T13:39:36;33.40;60.20
16066;DHT22;8137;48.952;8.970;2022-07-22T13:42:02;32.90;60.90
16066;DHT22;8137;48.952;8.970;2022-07-22T13:44:28;32.80;59.00
16066;DHT22;8137;48.952;8.970;2022-07-22T13:46:55;32.80;60.90
16066;DHT22;8137;48.952;8.970;2022-07-22T13:49:21;32.90;59.30
16066;DHT22;8137;48.952;8.970;2022-07-22T13:51:47;32.90;60.30
16066;DHT22;8137;48.952;8.970;2022-07-22T13:54:13;32.70;60.50
16066;DHT22;8137;48.952;8.970;2022-07-22T13:56:39;32.70;60.40
16066;DHT22;8137;48.952;8.970;2022-07-22T13:59:04;32.60;59.80
16066;DHT22;8137;48.952;8.970;2022-07-22T14:01:31;32.60;59.10
16066;DHT22;8137;48.952;8.970;2022-07-22T14:03:57;32.40;59.60
16066;DHT22;8137;48.952;8.970;2022-07-22T14:06:22;32.60;59.00
16066;DHT22;8137;48.952;8.970;2022-07-22T14:08:48;32.60;59.90
16066;DHT22;8137;48.952;8.970;2022-07-22T14:11:14;32.70;57.50
16066;DHT22;8137;48.952;8.970;2022-07-22T14:13:39;32.90;57.00
16066;DHT22;8137;48.952;8.970;2022-07-22T14:16:05;32.90;58.30
16066;DHT22;8137;48.952;8.970;2022-07-22T14:18:49;32.90;56.90
16066;DHT22;8137;48.952;8.970;2022-07-22T14:21:15;33.00;59.60
16066;DHT22;8137;48.952;8.970;2022-07-22T14:23:41;33.30;56.90
16066;DHT22;8137;48.952;8.970;2022-07-22T14:26:06;33.20;59.80
16066;DHT22;8137;48.952;8.970;2022-07-22T14:28:32;33.30;56.70
16066;DHT22;8137;48.952;8.970;2022-07-22T14:30:58;33.30;57.40
16066;DHT22;8137;48.952;8.970;2022-07-22T14:33:23;33.60;57.30
16066;DHT22;8137;48.952;8.970;2022-07-22T14:35:49;33.80;56.40
16066;DHT22;8137;48.952;8.970;2022-07-22T14:38:15;33.50;55.10
16066;DHT22;8137;48.952;8.970;2022-07-22T14:40:40;33.30;56.90
16066;DHT22;8137;48.952;8.970;2022-07-22T14:43:06;33.20;57.10
16066;DHT22;8137;48.952;8.970;2022-07-22T14:45:31;33.30;58.30
16066;DHT22;8137;48.952;8.970;2022-07-22T14:47:57;33.50;58.10
16066;DHT22;8137;48.952;8.970;2022-07-22T14:50:23;33.80;57.50
16066;DHT22;8137;48.952;8.970;2022-07-22T14:52:48;34.00;56.60
16066;DHT22;8137;48.952;8.970;2022-07-22T14:55:14;34.10;55.00
16066;DHT22;8137;48.952;8.970;2022-07-22T14:57:40;33.90;54.50
16066;DHT22;8137;48.952;8.970;2022-07-22T15:00:06;33.70;54.50
16066;DHT22;8137;48.952;8.970;2022-07-22T15:02:33;33.70;57.60
16066;DHT22;8137;48.952;8.970;2022-07-22T15:04:58;33.60;55.40
16066;DHT22;8137;48.952;8.970;2022-07-22T15:07:24;33.50;55.90
16066;DHT22;8137;48.952;8.970;2022-07-22T15:09:49;33.40;56.40
16066;DHT22;8137;48.952;8.970;2022-07-22T15:12:15;33.30;55.70
16066;DHT22;8137;48.952;8.970;2022-07-22T15:14:40;33.40;55.80
16066;DHT22;8137;48.952;8.970;2022-07-22T15:17:07;33.50;53.90
16066;DHT22;8137;48.952;8.970;2022-07-22T15:19:33;33.60;54.40
16066;DHT22;8137;48.952;8.970;2022-07-22T15:21:59;33.70;55.40
16066;DHT22;8137;48.952;8.970;2022-07-22T15:24:24;33.80;53.40
16066;DHT22;8137;48.952;8.970;2022-07-22T15:26:50;33.70;53.90
16066;DHT22;8137;48.952;8.970;2022-07-22T15:29:16;33.80;54.00
16066;DHT22;8137;48.952;8.970;2022-07-22T15:31:41;33.70;54.80
16066;DHT22;8137;48.952;8.970;2022-07-22T15:34:07;33.40;53.80
16066;DHT22;8137;48.952;8.970;2022-07-22T15:36:33;33.00;53.90
16066;DHT22;8137;48.952;8.970;2022-07-22T15:38:59;33.10;55.90
16066;DHT22;8137;48.952;8.970;2022-07-22T15:41:25;33.20;54.90
16066;DHT22;8137;48.952;8.970;2022-07-22T15:43:50;33.30;54.60
16066;DHT22;8137;48.952;8.970;2022-07-22T15:46:16;32.80;54.30
16066;DHT22;8137;48.952;8.970;2022-07-22T15:48:41;32.50;54.60
16066;DHT22;8137;48.952;8.970;2022-07-22T15:51:08;32.30;54.60
16066;DHT22;8137;48.952;8.970;2022-07-22T15:53:35;32.10;55.20
16066;DHT22;8137;48.952;8.970;2022-07-22T15:56:01;32.10;57.50
16066;DHT22;8137;48.952;8.970;2022-07-22T15:58:27;32.10;56.20